createdAt,value
2023-02-17T00:00:28.259Z,26.90
2023-02-17T00:02:30.518Z,26.00
2023-02-17T00:04:33.524Z,25.20
2023-02-17T00:06:35.803Z,24.70
2023-02-17T00:08:38.279Z,27.10
2023-02-17T00:10:40.593Z,26.90
2023-02-17T00:12:42.839Z,26.80
2023-02-17T00:14:45.041Z,26.73
2023-02-17T00:16:48.318Z,26.67
2023-02-17T00:18:59.601Z,28.00
2023-02-17T00:21:11.548Z,28.73
2023-02-17T00:23:13.750Z,30.10
2023-02-17T00:25:16.133Z,30.97
2023-02-17T00:27:19.582Z,28.87
2023-02-17T00:29:21.910Z,29.37
2023-02-17T00:31:24.410Z,30.13
2023-02-17T00:33:26.701Z,27.90
2023-02-17T00:35:28.893Z,29.43
2023-02-17T00:37:31.195Z,28.60
2023-02-17T00:39:33.391Z,30.00
2023-02-17T00:41:35.595Z,27.63
2023-02-17T00:43:39.183Z,28.00
2023-02-17T00:45:41.377Z,27.60
2023-02-17T00:47:43.471Z,27.27
2023-02-17T00:49:45.640Z,27.07
2023-02-17T00:51:47.884Z,27.87
2023-02-17T00:53:50.239Z,26.40
2023-02-17T00:55:52.430Z,28.40
2023-02-17T00:57:55.523Z,26.37
2023-02-17T00:59:58.124Z,27.97
2023-02-17T01:02:00.395Z,27.40
2023-02-17T01:04:05.129Z,25.57
2023-02-17T01:06:08.856Z,26.57
2023-02-17T01:08:12.400Z,27.47
2023-02-17T01:10:14.669Z,26.60
2023-02-17T01:12:16.890Z,26.77
2023-02-17T01:14:19.327Z,25.73
2023-02-17T01:16:27.918Z,25.03
2023-02-17T01:18:30.200Z,26.00
2023-02-17T01:20:36.778Z,24.50
2023-02-17T01:22:40.097Z,23.37
2023-02-17T01:24:42.984Z,25.77
2023-02-17T01:26:45.251Z,26.13
2023-02-17T01:28:47.835Z,25.33
2023-02-17T01:30:50.177Z,27.17
2023-02-17T01:32:52.679Z,23.33
2023-02-17T01:34:57.312Z,25.00
2023-02-17T01:36:59.506Z,24.67
2023-02-17T01:39:01.688Z,24.10
2023-02-17T01:41:04.861Z,23.40
2023-02-17T01:43:06.999Z,24.20
2023-02-17T01:45:33.946Z,25.63
2023-02-17T01:47:36.083Z,24.40
2023-02-17T01:49:40.166Z,24.30
2023-02-17T01:51:42.688Z,25.13
2023-02-17T01:53:52.536Z,24.63
2023-02-17T01:55:55.197Z,23.43
2023-02-17T01:57:58.875Z,25.80
2023-02-17T02:00:01.531Z,23.33
2023-02-17T02:02:14.793Z,22.57
2023-02-17T02:04:19.504Z,23.57
2023-02-17T02:06:24.455Z,23.73
2023-02-17T02:08:29.911Z,25.70
2023-02-17T02:10:32.101Z,24.20
2023-02-17T02:12:36.802Z,25.20
2023-02-17T02:14:39.005Z,26.90
2023-02-17T02:17:12.042Z,24.90
2023-02-17T02:19:47.811Z,26.23
2023-02-17T02:22:00.697Z,24.90
2023-02-17T02:24:02.870Z,23.57
2023-02-17T02:26:20.455Z,23.77
2023-02-17T02:28:46.052Z,25.70
2023-02-17T02:30:57.820Z,26.27
2023-02-17T02:33:03.181Z,24.73
2023-02-17T02:35:24.191Z,25.23
2023-02-17T02:38:08.299Z,25.50
2023-02-17T02:40:11.876Z,23.47
2023-02-17T02:42:17.722Z,25.77
2023-02-17T02:44:21.753Z,26.77
2023-02-17T02:46:24.036Z,27.47
2023-02-17T02:48:26.944Z,25.57
2023-02-17T02:50:52.591Z,26.97
2023-02-17T02:53:06.827Z,25.20
2023-02-17T02:55:16.625Z,25.30
2023-02-17T02:57:20.851Z,27.00
2023-02-17T02:59:27.081Z,25.53
2023-02-17T03:01:45.632Z,26.43
2023-02-17T03:04:02.945Z,24.17
2023-02-17T03:06:31.482Z,24.60
2023-02-17T03:08:38.642Z,23.50
2023-02-17T03:10:50.212Z,26.23
2023-02-17T03:12:52.855Z,23.10
2023-02-17T03:15:00.686Z,24.00
2023-02-17T03:17:02.976Z,24.30
2023-02-17T03:19:06.475Z,25.37
2023-02-17T03:21:15.158Z,24.67
2023-02-17T03:23:18.170Z,25.37
2023-02-17T03:25:20.417Z,24.63
2023-02-17T03:27:22.757Z,25.10
2023-02-17T03:29:25.079Z,25.10
2023-02-17T03:31:30.618Z,25.30
2023-02-17T03:33:33.103Z,26.03
2023-02-17T03:35:35.424Z,27.17
2023-02-17T03:37:38.280Z,27.43
2023-02-17T03:39:40.589Z,25.30
2023-02-17T03:41:43.012Z,26.40
2023-02-17T03:43:45.198Z,23.47
2023-02-17T03:45:47.418Z,26.77
2023-02-17T03:47:49.654Z,25.50
2023-02-17T03:49:52.347Z,26.07
2023-02-17T03:51:54.596Z,25.30
2023-02-17T03:53:56.850Z,24.10
2023-02-17T03:55:59.055Z,23.40
2023-02-17T03:58:01.427Z,23.70
2023-02-17T04:00:05.572Z,24.00
2023-02-17T04:02:15.131Z,23.90
2023-02-17T04:04:17.391Z,23.87
2023-02-17T04:06:19.732Z,22.70
2023-02-17T04:08:22.526Z,23.60
2023-02-17T04:10:24.850Z,23.83
2023-02-17T04:12:27.092Z,21.83
2023-02-17T04:14:29.230Z,23.03
2023-02-17T04:16:31.361Z,23.47
2023-02-17T04:18:33.893Z,24.27
2023-02-17T04:20:36.106Z,24.50
2023-02-17T04:22:38.417Z,23.87
2023-02-17T04:24:40.750Z,23.17
2023-02-17T04:26:43.005Z,22.40
2023-02-17T04:28:45.139Z,23.70
2023-02-17T04:30:49.293Z,21.17
2023-02-17T04:32:51.504Z,21.97
2023-02-17T04:34:53.700Z,24.20
2023-02-17T04:36:55.994Z,22.80
2023-02-17T04:38:58.158Z,24.20
2023-02-17T04:41:01.466Z,20.70
2023-02-17T04:43:04.281Z,25.27
2023-02-17T04:45:07.612Z,23.20
2023-02-17T04:47:09.738Z,23.17
2023-02-17T04:49:12.001Z,23.70
2023-02-17T04:51:14.150Z,23.07
2023-02-17T04:53:16.617Z,24.10
2023-02-17T04:55:18.915Z,22.10
2023-02-17T04:57:21.346Z,25.03
2023-02-17T04:59:25.809Z,21.50
2023-02-17T05:01:28.688Z,22.63
2023-02-17T05:03:31.074Z,22.17
2023-02-17T05:05:33.510Z,21.07
2023-02-17T05:07:35.820Z,23.03
2023-02-17T05:09:38.882Z,23.90
2023-02-17T05:11:41.117Z,20.43
2023-02-17T05:13:43.304Z,23.33
2023-02-17T05:15:46.011Z,22.87
2023-02-17T05:17:48.257Z,21.27
2023-02-17T05:19:50.408Z,22.30
2023-02-17T05:21:52.690Z,22.83
2023-02-17T05:23:54.932Z,22.37
2023-02-17T05:25:57.114Z,22.23
2023-02-17T05:27:59.437Z,22.67
2023-02-17T05:30:01.649Z,21.57
2023-02-17T05:32:04.090Z,21.60
2023-02-17T05:34:06.323Z,21.10
2023-02-17T05:36:09.933Z,22.77
2023-02-17T05:38:12.142Z,20.70
2023-02-17T05:40:14.455Z,20.77
2023-02-17T05:42:16.655Z,20.80
2023-02-17T05:44:19.057Z,20.27
2023-02-17T05:46:22.961Z,20.30
2023-02-17T05:48:25.267Z,20.10
2023-02-17T05:50:27.432Z,18.70
2023-02-17T05:52:30.757Z,19.50
2023-02-17T05:54:33.040Z,20.70
2023-02-17T05:56:35.305Z,22.00
2023-02-17T05:58:37.517Z,20.10
2023-02-17T06:00:40.064Z,21.10
2023-02-17T06:02:42.280Z,19.10
2023-02-17T06:04:44.732Z,17.80
2023-02-17T06:06:47.136Z,19.23
2023-02-17T06:08:49.270Z,19.07
2023-02-17T06:10:53.463Z,18.67
2023-02-17T06:12:55.652Z,19.33
2023-02-17T06:14:57.808Z,19.60
2023-02-17T06:17:01.187Z,18.03
2023-02-17T06:19:05.368Z,18.20
2023-02-17T06:21:07.650Z,18.87
2023-02-17T06:23:09.889Z,17.50
2023-02-17T06:25:12.068Z,20.13
2023-02-17T06:27:14.322Z,18.60
2023-02-17T06:29:16.604Z,18.47
2023-02-17T06:31:18.981Z,19.50
2023-02-17T06:33:21.274Z,18.67
2023-02-17T06:35:23.651Z,18.50
2023-02-17T06:37:25.914Z,17.97
2023-02-17T06:39:28.129Z,17.40
2023-02-17T06:41:30.310Z,16.47
2023-02-17T06:43:32.601Z,17.07
2023-02-17T06:45:34.895Z,17.30
2023-02-17T06:47:37.186Z,16.77
2023-02-17T06:49:40.900Z,17.40
2023-02-17T06:51:43.257Z,17.77
2023-02-17T06:53:45.434Z,17.30
2023-02-17T06:55:47.601Z,16.60
2023-02-17T06:57:49.767Z,16.83
2023-02-17T06:59:52.026Z,17.60
2023-02-17T07:01:54.455Z,15.63
2023-02-17T07:03:57.047Z,16.67
2023-02-17T07:05:59.984Z,16.90
2023-02-17T07:08:02.778Z,16.83
2023-02-17T07:10:06.704Z,16.23
2023-02-17T07:12:09.489Z,16.00
2023-02-17T07:14:11.646Z,15.47
2023-02-17T07:16:14.971Z,16.87
2023-02-17T07:18:17.152Z,16.13
2023-02-17T07:20:19.446Z,15.73
2023-02-17T07:22:21.749Z,17.13
2023-02-17T07:24:24.085Z,17.47
2023-02-17T07:26:26.242Z,17.50
2023-02-17T07:28:28.809Z,16.60
2023-02-17T07:30:30.952Z,16.30
2023-02-17T07:32:33.239Z,15.90
2023-02-17T07:34:35.289Z,16.20
2023-02-17T07:36:37.363Z,15.23
2023-02-17T07:38:40.003Z,17.37
2023-02-17T07:40:42.247Z,15.53
2023-02-17T07:42:44.276Z,16.80
2023-02-17T07:44:46.276Z,14.90
2023-02-17T07:46:48.304Z,15.80
2023-02-17T07:48:50.445Z,16.63
2023-02-17T07:50:53.168Z,16.50
2023-02-17T07:52:55.286Z,16.17
2023-02-17T07:54:57.285Z,15.03
2023-02-17T07:57:01.554Z,16.87
2023-02-17T07:59:03.761Z,16.03
2023-02-17T08:01:07.437Z,15.37
2023-02-17T08:03:10.759Z,16.77
2023-02-17T08:05:12.883Z,14.83
2023-02-17T08:07:14.973Z,16.83
2023-02-17T08:09:37.270Z,16.10
2023-02-17T08:11:58.607Z,14.63
2023-02-17T08:14:01.509Z,16.37
2023-02-17T08:16:04.009Z,14.90
2023-02-17T08:18:07.025Z,14.53
2023-02-17T08:20:09.637Z,15.00
2023-02-17T08:22:12.085Z,15.70
2023-02-17T08:24:15.431Z,15.97
2023-02-17T08:26:18.710Z,14.97
2023-02-17T08:28:21.633Z,14.73
2023-02-17T08:30:23.747Z,15.17
2023-02-17T08:32:25.773Z,15.57
2023-02-17T08:34:28.624Z,16.50
2023-02-17T08:36:30.778Z,16.60
2023-02-17T08:38:34.469Z,15.43
2023-02-17T08:40:36.466Z,15.37
2023-02-17T08:42:38.988Z,16.13
2023-02-17T08:44:41.193Z,15.30
2023-02-17T08:46:44.815Z,18.03
2023-02-17T08:48:47.760Z,15.60
2023-02-17T08:50:49.825Z,16.90
2023-02-17T08:52:51.858Z,17.00
2023-02-17T08:54:53.953Z,16.63
2023-02-17T08:56:56.406Z,38.30
2023-02-17T08:58:58.806Z,17.83
2023-02-17T09:01:01.149Z,40.83
2023-02-17T09:03:03.494Z,36.60
2023-02-17T09:05:06.335Z,20.13
2023-02-17T09:07:10.906Z,24.90
2023-02-17T09:09:15.712Z,41.20
2023-02-17T09:11:19.820Z,35.03
2023-02-17T09:13:22.059Z,33.60
2023-02-17T09:15:24.386Z,55.23
2023-02-17T09:17:26.480Z,85.53
2023-02-17T09:19:28.579Z,36.43
2023-02-17T09:21:30.894Z,18.33
2023-02-17T09:23:33.242Z,27.67
2023-02-17T09:25:35.329Z,19.77
2023-02-17T09:27:37.370Z,22.77
2023-02-17T09:29:39.933Z,15.87
2023-02-17T09:31:42.160Z,19.60
2023-02-17T09:33:44.493Z,21.13
2023-02-17T09:35:46.541Z,14.80
2023-02-17T09:37:48.615Z,29.83
2023-02-17T09:39:50.701Z,24.30
2023-02-17T09:41:54.787Z,17.03
2023-02-17T09:43:56.987Z,47.97
2023-02-17T09:46:05.599Z,26.63
2023-02-17T09:48:11.998Z,18.83
2023-02-17T09:50:19.599Z,34.97
2023-02-17T09:52:30.657Z,23.50
2023-02-17T09:54:40.103Z,23.90
2023-02-17T09:56:46.185Z,11.97
2023-02-17T09:58:51.962Z,12.20
2023-02-17T10:00:56.797Z,11.60
2023-02-17T10:03:06.840Z,12.47
2023-02-17T10:05:12.386Z,12.03
2023-02-17T10:07:32.376Z,11.70
2023-02-17T10:09:37.385Z,11.57
2023-02-17T10:11:55.122Z,9.90
2023-02-17T10:13:59.920Z,10.70
2023-02-17T10:16:08.053Z,10.10
2023-02-17T10:18:32.772Z,8.70
2023-02-17T10:20:56.117Z,9.83
2023-02-17T10:23:25.933Z,9.90
2023-02-17T10:25:42.025Z,9.30
2023-02-17T10:27:54.581Z,8.77
2023-02-17T10:30:20.726Z,9.53
2023-02-17T10:32:26.293Z,8.73
2023-02-17T10:34:35.309Z,8.77
2023-02-17T10:36:43.400Z,8.63
2023-02-17T10:38:52.226Z,7.10
2023-02-17T10:40:55.664Z,7.67
2023-02-17T10:43:01.050Z,8.30
2023-02-17T10:45:06.994Z,8.57
2023-02-17T10:47:10.417Z,7.60
2023-02-17T10:49:27.633Z,6.63
2023-02-17T10:51:31.285Z,6.67
2023-02-17T10:53:36.957Z,7.60
2023-02-17T10:55:41.919Z,8.20
2023-02-17T10:57:44.934Z,7.30
2023-02-17T10:59:49.041Z,7.40
2023-02-17T11:01:51.601Z,6.17
2023-02-17T11:04:09.530Z,7.20
2023-02-17T11:06:19.444Z,7.07
2023-02-17T11:08:44.411Z,6.13
2023-02-17T11:10:46.521Z,5.10
2023-02-17T11:12:50.424Z,6.20
2023-02-17T11:14:55.157Z,6.70
2023-02-17T11:17:03.336Z,6.43
2023-02-17T11:19:06.701Z,6.20
2023-02-17T11:21:11.759Z,6.00
2023-02-17T11:23:14.826Z,5.63
2023-02-17T11:25:28.886Z,6.07
2023-02-17T11:27:31.093Z,5.67
2023-02-17T11:29:34.160Z,5.80
2023-02-17T11:31:37.612Z,5.53
2023-02-17T11:33:40.939Z,5.50
2023-02-17T11:35:53.767Z,4.80
2023-02-17T11:38:13.996Z,5.33
2023-02-17T11:40:27.706Z,4.97
2023-02-17T11:42:32.276Z,5.27
2023-02-17T11:44:34.444Z,5.20
2023-02-17T11:46:46.948Z,5.20
2023-02-17T11:49:40.876Z,4.77
2023-02-17T11:52:25.783Z,5.17
2023-02-17T11:54:49.935Z,4.50
2023-02-17T11:57:12.957Z,4.73
2023-02-17T11:59:36.546Z,4.43
2023-02-17T12:01:56.675Z,4.70
2023-02-17T12:04:10.825Z,4.57
2023-02-17T12:06:37.735Z,4.90
2023-02-17T12:08:48.624Z,4.40
2023-02-17T12:11:04.317Z,5.00
2023-02-17T12:13:15.530Z,4.37
2023-02-17T12:15:49.907Z,4.30
2023-02-17T12:18:15.688Z,5.00
2023-02-17T12:20:25.985Z,4.67
2023-02-17T12:22:33.543Z,5.40
2023-02-17T12:24:44.894Z,4.20
2023-02-17T12:27:31.720Z,4.43
2023-02-17T12:29:42.802Z,5.27
2023-02-17T12:32:11.794Z,4.37
2023-02-17T12:34:29.013Z,5.30
2023-02-17T12:36:35.116Z,4.80
2023-02-17T12:38:41.768Z,5.73
2023-02-17T12:40:58.673Z,4.80
2023-02-17T12:43:14.195Z,5.70
2023-02-17T12:45:20.178Z,4.60
2023-02-17T12:47:29.727Z,4.63
2023-02-17T12:49:36.312Z,4.50
2023-02-17T12:51:43.605Z,4.93
2023-02-17T12:53:54.379Z,4.97
2023-02-17T12:55:58.696Z,5.40
2023-02-17T12:58:07.515Z,4.20
2023-02-17T13:00:56.166Z,4.63
2023-02-17T13:03:02.557Z,4.40
2023-02-17T13:05:11.551Z,4.70
2023-02-17T13:07:41.573Z,4.93
2023-02-17T13:09:46.460Z,4.23
2023-02-17T13:11:49.373Z,3.60
2023-02-17T13:13:51.507Z,4.20
2023-02-17T13:16:07.218Z,3.97
2023-02-17T13:18:24.883Z,4.13
2023-02-17T13:21:00.902Z,3.93
2023-02-17T13:23:10.779Z,3.93
2023-02-17T13:25:37.080Z,3.97
2023-02-17T13:27:40.444Z,4.67
2023-02-17T13:30:11.307Z,3.93
2023-02-17T13:32:13.551Z,3.57
2023-02-17T13:34:37.918Z,3.67
2023-02-17T13:36:43.630Z,3.40
2023-02-17T13:39:00.866Z,4.13
2023-02-17T13:41:06.599Z,3.67
2023-02-17T13:43:15.243Z,3.90
2023-02-17T13:45:24.455Z,3.90
2023-02-17T13:47:37.254Z,3.37
2023-02-17T13:49:39.809Z,3.63
2023-02-17T13:51:43.382Z,4.23
2023-02-17T13:53:49.884Z,4.30
2023-02-17T13:55:56.797Z,3.80
2023-02-17T13:57:59.531Z,3.90
2023-02-17T14:00:13.685Z,3.80
2023-02-17T14:02:35.452Z,3.20
2023-02-17T14:04:38.434Z,4.33
2023-02-17T14:06:41.008Z,4.10
2023-02-17T14:08:43.510Z,4.27
2023-02-17T14:10:46.467Z,3.60
2023-02-17T14:12:49.509Z,3.50
2023-02-17T14:14:51.709Z,3.60
2023-02-17T14:17:03.593Z,3.93
2023-02-17T14:19:09.747Z,3.77
2023-02-17T14:21:25.700Z,3.47
2023-02-17T14:23:27.768Z,3.60
2023-02-17T14:25:32.608Z,3.77
2023-02-17T14:27:45.312Z,4.17
2023-02-17T14:29:50.232Z,3.80
2023-02-17T14:31:53.392Z,3.60
2023-02-17T14:33:57.641Z,3.80
2023-02-17T14:36:04.003Z,3.23
2023-02-17T14:38:20.935Z,4.00
2023-02-17T14:40:24.971Z,3.40
2023-02-17T14:42:27.099Z,4.60
2023-02-17T14:44:29.109Z,3.30
2023-02-17T14:46:31.197Z,2.90
2023-02-17T14:48:33.345Z,3.70
2023-02-17T14:50:42.342Z,3.10
2023-02-17T14:52:47.950Z,3.60
2023-02-17T14:54:50.195Z,3.37
2023-02-17T14:57:09.147Z,2.93
2023-02-17T14:59:11.292Z,2.90
2023-02-17T15:01:19.232Z,3.07
2023-02-17T15:03:21.392Z,2.97
2023-02-17T15:05:23.950Z,2.80
2023-02-17T15:07:26.207Z,3.20
2023-02-17T15:09:30.439Z,3.97
2023-02-17T15:11:35.464Z,4.10
2023-02-17T15:13:38.190Z,3.40
2023-02-17T15:15:44.566Z,3.80
2023-02-17T15:17:46.675Z,3.43
2023-02-17T15:19:49.406Z,3.93
2023-02-17T15:21:52.290Z,3.80
2023-02-17T15:23:55.246Z,3.20
2023-02-17T15:25:57.332Z,4.27
2023-02-17T15:27:59.343Z,5.87
2023-02-17T15:30:01.404Z,5.23
2023-02-17T15:32:12.936Z,5.10
2023-02-17T15:34:24.338Z,5.20
2023-02-17T15:36:28.165Z,4.90
2023-02-17T15:38:31.653Z,6.60
2023-02-17T15:40:34.163Z,5.90
2023-02-17T15:42:37.185Z,6.70
2023-02-17T15:44:47.345Z,7.87
2023-02-17T15:46:51.105Z,6.87
2023-02-17T15:48:53.313Z,7.67
2023-02-17T15:50:55.968Z,7.93
2023-02-17T15:52:58.244Z,8.30
2023-02-17T15:55:00.418Z,9.07
2023-02-17T15:57:03.262Z,9.30
2023-02-17T15:59:10.728Z,8.97
2023-02-17T16:01:38.576Z,8.90
2023-02-17T16:03:40.588Z,9.17
2023-02-17T16:05:42.934Z,9.17
2023-02-17T16:07:45.389Z,9.00
2023-02-17T16:09:47.461Z,9.10
2023-02-17T16:11:51.974Z,9.00
2023-02-17T16:13:54.346Z,9.33
2023-02-17T16:15:58.462Z,8.97
2023-02-17T16:18:00.642Z,9.27
2023-02-17T16:20:02.763Z,9.27
2023-02-17T16:22:04.858Z,7.87
2023-02-17T16:24:06.909Z,7.37
2023-02-17T16:26:23.514Z,7.73
2023-02-17T16:28:25.611Z,6.50
2023-02-17T16:30:31.621Z,6.77
2023-02-17T16:32:35.013Z,6.83
2023-02-17T16:34:37.194Z,5.97
2023-02-17T16:36:39.225Z,5.60
2023-02-17T16:38:41.649Z,5.17
2023-02-17T16:40:47.747Z,5.87
2023-02-17T16:42:50.053Z,5.50
2023-02-17T16:44:52.107Z,6.00
2023-02-17T16:46:56.218Z,5.60
2023-02-17T16:48:59.050Z,6.00
2023-02-17T16:51:01.506Z,6.30
2023-02-17T16:53:08.762Z,5.97
2023-02-17T16:55:21.623Z,6.77
2023-02-17T16:57:24.195Z,6.47
2023-02-17T16:59:26.934Z,6.50
2023-02-17T17:01:29.152Z,6.30
2023-02-17T17:03:31.372Z,5.97
2023-02-17T17:05:34.471Z,6.70
2023-02-17T17:07:38.609Z,5.83
2023-02-17T17:09:40.986Z,6.20
2023-02-17T17:11:44.555Z,5.23
2023-02-17T17:13:47.231Z,5.53
2023-02-17T17:15:49.457Z,5.07
2023-02-17T17:18:00.097Z,5.50
2023-02-17T17:20:02.426Z,5.90
2023-02-17T17:22:04.710Z,6.70
2023-02-17T17:24:06.957Z,5.70
2023-02-17T17:26:41.420Z,5.10
2023-02-17T17:28:44.588Z,6.10
2023-02-17T17:30:46.940Z,7.40
2023-02-17T17:32:49.191Z,5.70
2023-02-17T17:34:52.133Z,5.60
2023-02-17T17:36:54.300Z,5.63
2023-02-17T17:38:57.317Z,6.23
2023-02-17T17:40:59.540Z,5.70
2023-02-17T17:43:02.907Z,5.03
2023-02-17T17:45:05.300Z,5.37
2023-02-17T17:47:18.311Z,5.67
2023-02-17T17:49:23.532Z,5.50
2023-02-17T17:51:27.424Z,5.70
2023-02-17T17:53:29.617Z,4.83
2023-02-17T17:55:31.874Z,4.80
2023-02-17T17:57:34.215Z,5.50
2023-02-17T17:59:36.689Z,5.13
2023-02-17T18:01:39.022Z,5.47
2023-02-17T18:03:42.090Z,4.47
2023-02-17T18:05:44.525Z,4.07
2023-02-17T18:07:47.724Z,4.80
2023-02-17T18:09:49.986Z,4.90
2023-02-17T18:11:53.590Z,4.97
2023-02-17T18:13:58.866Z,3.70
2023-02-17T18:16:01.449Z,3.93
2023-02-17T18:18:03.934Z,4.63
2023-02-17T18:20:10.510Z,5.10
2023-02-17T18:22:13.013Z,5.13
2023-02-17T18:24:15.255Z,4.87
2023-02-17T18:26:18.597Z,3.70
2023-02-17T18:28:20.830Z,4.77
2023-02-17T18:30:23.975Z,4.20
2023-02-17T18:32:26.184Z,4.60
2023-02-17T18:34:28.434Z,4.70
2023-02-17T18:36:30.895Z,4.40
2023-02-17T18:38:34.120Z,4.90
2023-02-17T18:40:39.334Z,4.30
2023-02-17T18:42:42.800Z,4.00
2023-02-17T18:44:45.057Z,4.40
2023-02-17T18:46:48.421Z,3.93
2023-02-17T18:48:50.773Z,4.63
2023-02-17T18:50:53.271Z,3.87
2023-02-17T18:52:55.462Z,3.70
2023-02-17T18:54:57.767Z,3.60
2023-02-17T18:57:00.011Z,3.50
2023-02-17T18:59:02.205Z,4.00
2023-02-17T19:01:04.627Z,4.00
2023-02-17T19:03:06.877Z,3.77
2023-02-17T19:05:10.914Z,3.87
2023-02-17T19:07:13.179Z,3.87
2023-02-17T19:09:15.390Z,3.70
2023-02-17T19:11:18.341Z,3.40
2023-02-17T19:13:20.515Z,3.50
2023-02-17T19:15:22.792Z,4.00
2023-02-17T19:17:25.716Z,3.20
2023-02-17T19:19:30.367Z,3.50
2023-02-17T19:21:33.788Z,3.47
2023-02-17T19:23:37.755Z,3.40
2023-02-17T19:25:39.915Z,3.33
2023-02-17T19:27:42.133Z,4.03
2023-02-17T19:29:44.352Z,4.00
2023-02-17T19:31:46.873Z,4.17
2023-02-17T19:33:49.275Z,3.87
2023-02-17T19:35:52.205Z,3.70
2023-02-17T19:37:54.433Z,3.70
2023-02-17T19:39:56.737Z,4.50
2023-02-17T19:41:59.039Z,3.77
2023-02-17T19:44:01.178Z,4.27
2023-02-17T19:46:04.091Z,3.93
2023-02-17T19:48:06.289Z,4.30
2023-02-17T19:50:08.719Z,5.00
2023-02-17T19:52:11.338Z,5.57
2023-02-17T19:54:13.537Z,5.17
2023-02-17T19:56:17.135Z,5.20
2023-02-17T19:58:19.401Z,4.83
2023-02-17T20:00:21.781Z,5.63
2023-02-17T20:02:24.112Z,5.50
2023-02-17T20:04:26.358Z,5.20
2023-02-17T20:06:39.845Z,4.90
2023-02-17T20:08:42.138Z,4.20
2023-02-17T20:10:44.294Z,4.50
2023-02-17T20:12:46.633Z,4.33
2023-02-17T20:14:49.045Z,4.80
2023-02-17T20:16:53.441Z,4.10
2023-02-17T20:18:55.728Z,4.93
2023-02-17T20:20:58.060Z,4.70
2023-02-17T20:23:00.319Z,4.50
2023-02-17T20:25:02.781Z,3.63
2023-02-17T20:27:04.965Z,3.70
2023-02-17T20:29:07.789Z,3.70
2023-02-17T20:31:10.380Z,3.50
2023-02-17T20:33:12.912Z,3.20
2023-02-17T20:35:16.074Z,3.13
2023-02-17T20:37:18.380Z,3.57
2023-02-17T20:39:20.846Z,2.87
2023-02-17T20:41:23.806Z,3.73
2023-02-17T20:43:26.438Z,3.30
2023-02-17T20:45:28.764Z,2.60
2023-02-17T20:47:31.076Z,2.90
2023-02-17T20:49:33.285Z,3.10
2023-02-17T20:51:35.608Z,2.90
2023-02-17T20:53:38.072Z,2.57
2023-02-17T20:55:40.280Z,2.83
2023-02-17T20:57:42.571Z,2.57
2023-02-17T20:59:45.834Z,2.40
2023-02-17T21:01:48.421Z,2.43
2023-02-17T21:03:51.356Z,2.10
2023-02-17T21:05:54.546Z,2.10
2023-02-17T21:07:58.195Z,2.70
2023-02-17T21:10:00.384Z,2.57
2023-02-17T21:12:02.942Z,2.33
2023-02-17T21:14:05.125Z,2.47
2023-02-17T21:16:07.546Z,2.30
2023-02-17T21:18:09.996Z,2.87
2023-02-17T21:20:15.470Z,2.10
2023-02-17T21:22:17.646Z,2.03
2023-02-17T21:24:20.012Z,2.97
2023-02-17T21:26:22.494Z,2.33
2023-02-17T21:28:24.854Z,2.30
2023-02-17T21:30:27.224Z,2.10
2023-02-17T21:32:29.502Z,2.00
2023-02-17T21:34:36.611Z,2.43
2023-02-17T21:36:39.957Z,2.50
2023-02-17T21:38:42.249Z,2.30
2023-02-17T21:40:44.489Z,2.50
2023-02-17T21:43:05.652Z,1.90
2023-02-17T21:45:08.266Z,2.27
2023-02-17T21:47:10.731Z,2.20
2023-02-17T21:49:13.628Z,2.17
2023-02-17T21:51:15.943Z,2.07
2023-02-17T21:53:18.233Z,2.23
2023-02-17T21:55:20.481Z,2.30
2023-02-17T21:57:22.663Z,2.20
2023-02-17T21:59:25.145Z,2.00
2023-02-17T22:01:27.952Z,3.07
2023-02-17T22:03:30.184Z,2.20
2023-02-17T22:05:32.512Z,2.20
2023-02-17T22:07:35.711Z,2.80
2023-02-17T22:09:37.975Z,2.27
2023-02-17T22:11:42.046Z,2.33
2023-02-17T22:13:45.122Z,2.20
2023-02-17T22:15:56.661Z,2.60
2023-02-17T22:17:58.935Z,2.50
2023-02-17T22:20:01.315Z,2.63
2023-02-17T22:22:03.882Z,2.50
2023-02-17T22:24:06.442Z,2.63
2023-02-17T22:26:14.706Z,2.20
2023-02-17T22:28:16.913Z,2.83
2023-02-17T22:30:19.239Z,2.30
2023-02-17T22:32:21.540Z,2.83
2023-02-17T22:34:24.170Z,2.53
2023-02-17T22:36:29.868Z,2.67
2023-02-17T22:38:32.191Z,3.00
2023-02-17T22:40:34.554Z,2.80
2023-02-17T22:42:36.755Z,3.07
2023-02-17T22:44:39.290Z,2.77
2023-02-17T22:46:41.578Z,2.80
2023-02-17T22:48:45.664Z,2.40
2023-02-17T22:50:47.869Z,2.90
2023-02-17T22:52:50.079Z,2.63
2023-02-17T22:54:52.425Z,3.23
2023-02-17T22:56:54.679Z,3.10
2023-02-17T22:59:00.684Z,2.67
2023-02-17T23:01:09.140Z,2.27
2023-02-17T23:03:11.445Z,2.73
2023-02-17T23:05:13.814Z,2.43
2023-02-17T23:07:16.128Z,2.07
2023-02-17T23:09:19.462Z,2.20
2023-02-17T23:11:43.920Z,2.90
2023-02-17T23:13:46.240Z,2.80
2023-02-17T23:15:48.509Z,2.83
2023-02-17T23:17:56.425Z,2.10
2023-02-17T23:19:58.680Z,1.70
2023-02-17T23:22:04.106Z,2.47
2023-02-17T23:24:06.639Z,2.80
2023-02-17T23:26:09.144Z,2.47
2023-02-17T23:28:12.691Z,2.30
2023-02-17T23:30:19.947Z,2.53
2023-02-17T23:32:22.135Z,2.77
2023-02-17T23:34:24.802Z,2.93
2023-02-17T23:36:27.151Z,2.30
2023-02-17T23:38:29.440Z,2.57
2023-02-17T23:40:32.320Z,2.50
2023-02-17T23:42:34.574Z,2.80
2023-02-17T23:44:36.801Z,2.20
2023-02-17T23:46:40.527Z,2.90
2023-02-17T23:48:42.871Z,2.67
2023-02-17T23:50:45.080Z,2.10
2023-02-17T23:52:47.283Z,2.43
2023-02-17T23:54:49.477Z,3.07
2023-02-17T23:56:51.600Z,2.07
2023-02-17T23:58:54.357Z,2.10
